sensor_id;sensor_type;location;lat;lon;timestamp;P1;durP1;ratioP1;P2;durP2;ratioP2
55288;SDS011;41154;45.394;5.734;2023-02-28T00:00:28;8.48;;;5.20;;
55288;SDS011;41154;45.394;5.734;2023-02-28T00:02:53;8.25;;;4.82;;
55288;SDS011;41154;45.394;5.734;2023-02-28T00:05:20;7.20;;;4.40;;
55288;SDS011;41154;45.394;5.734;2023-02-28T00:07:47;6.15;;;3.70;;
55288;SDS011;41154;45.394;5.734;2023-02-28T00:10:16;5.78;;;3.55;;
55288;SDS011;41154;45.394;5.734;2023-02-28T00:12:48;6.75;;;4.00;;
55288;SDS011;41154;45.394;5.734;2023-02-28T00:15:18;5.70;;;3.80;;
55288;SDS011;41154;45.394;5.734;2023-02-28T00:17:44;6.20;;;3.67;;
55288;SDS011;41154;45.394;5.734;2023-02-28T00:20:10;5.38;;;2.72;;
55288;SDS011;41154;45.394;5.734;2023-02-28T00:22:38;6.80;;;4.05;;
55288;SDS011;41154;45.394;5.734;2023-02-28T00:25:06;7.05;;;3.60;;
55288;SDS011;41154;45.394;5.734;2023-02-28T00:27:33;6.03;;;3.50;;
55288;SDS011;41154;45.394;5.734;2023-02-28T00:30:03;5.20;;;3.35;;
55288;SDS011;41154;45.394;5.734;2023-02-28T00:32:31;7.75;;;4.18;;
55288;SDS011;41154;45.394;5.734;2023-02-28T00:34:57;6.28;;;4.20;;
55288;SDS011;41154;45.394;5.734;2023-02-28T00:37:23;6.38;;;3.97;;
55288;SDS011;41154;45.394;5.734;2023-02-28T00:39:48;6.97;;;4.15;;
55288;SDS011;41154;45.394;5.734;2023-02-28T00:42:14;7.25;;;4.05;;
55288;SDS011;41154;45.394;5.734;2023-02-28T00:44:40;8.65;;;4.57;;
55288;SDS011;41154;45.394;5.734;2023-02-28T00:47:06;5.55;;;3.63;;
55288;SDS011;41154;45.394;5.734;2023-02-28T00:49:32;6.10;;;3.83;;
55288;SDS011;41154;45.394;5.734;2023-02-28T00:52:01;8.80;;;5.43;;
55288;SDS011;41154;45.394;5.734;2023-02-28T00:54:27;8.40;;;4.38;;
55288;SDS011;41154;45.394;5.734;2023-02-28T00:56:54;5.93;;;3.67;;
55288;SDS011;41154;45.394;5.734;2023-02-28T00:59:21;8.52;;;5.05;;
55288;SDS011;41154;45.394;5.734;2023-02-28T01:01:51;6.80;;;3.78;;
55288;SDS011;41154;45.394;5.734;2023-02-28T01:04:19;5.97;;;3.78;;
55288;SDS011;41154;45.394;5.734;2023-02-28T01:06:46;5.45;;;3.75;;
55288;SDS011;41154;45.394;5.734;2023-02-28T01:09:13;8.52;;;5.03;;
55288;SDS011;41154;45.394;5.734;2023-02-28T01:11:41;6.63;;;3.78;;
55288;SDS011;41154;45.394;5.734;2023-02-28T01:14:13;8.00;;;4.05;;
55288;SDS011;41154;45.394;5.734;2023-02-28T01:16:42;6.85;;;4.35;;
55288;SDS011;41154;45.394;5.734;2023-02-28T01:19:11;7.50;;;4.45;;
55288;SDS011;41154;45.394;5.734;2023-02-28T01:21:38;8.98;;;5.13;;
55288;SDS011;41154;45.394;5.734;2023-02-28T01:24:11;6.28;;;3.17;;
55288;SDS011;41154;45.394;5.734;2023-02-28T01:26:39;7.40;;;4.45;;
55288;SDS011;41154;45.394;5.734;2023-02-28T01:29:07;7.13;;;4.45;;
55288;SDS011;41154;45.394;5.734;2023-02-28T01:31:34;8.23;;;4.63;;
55288;SDS011;41154;45.394;5.734;2023-02-28T01:34:01;7.55;;;4.43;;
55288;SDS011;41154;45.394;5.734;2023-02-28T01:36:29;7.97;;;4.80;;
55288;SDS011;41154;45.394;5.734;2023-02-28T01:38:55;8.50;;;4.20;;
55288;SDS011;41154;45.394;5.734;2023-02-28T01:41:28;9.18;;;5.03;;
55288;SDS011;41154;45.394;5.734;2023-02-28T01:46:32;11.00;;;5.40;;
55288;SDS011;41154;45.394;5.734;2023-02-28T01:51:37;10.65;;;4.65;;
55288;SDS011;41154;45.394;5.734;2023-02-28T01:54:30;7.95;;;4.82;;
55288;SDS011;41154;45.394;5.734;2023-02-28T01:59:48;9.25;;;4.25;;
55288;SDS011;41154;45.394;5.734;2023-02-28T02:02:23;8.82;;;4.25;;
55288;SDS011;41154;45.394;5.734;2023-02-28T02:07:21;9.25;;;4.32;;
55288;SDS011;41154;45.394;5.734;2023-02-28T02:09:47;8.82;;;4.93;;
55288;SDS011;41154;45.394;5.734;2023-02-28T02:12:26;7.28;;;4.07;;
55288;SDS011;41154;45.394;5.734;2023-02-28T02:15:00;8.95;;;4.28;;
55288;SDS011;41154;45.394;5.734;2023-02-28T02:17:45;8.10;;;4.57;;
55288;SDS011;41154;45.394;5.734;2023-02-28T02:20:38;10.38;;;4.57;;
55288;SDS011;41154;45.394;5.734;2023-02-28T02:23:38;10.40;;;4.75;;
55288;SDS011;41154;45.394;5.734;2023-02-28T02:40:13;6.90;;;3.92;;
55288;SDS011;41154;45.394;5.734;2023-02-28T02:42:41;7.50;;;4.63;;
55288;SDS011;41154;45.394;5.734;2023-02-28T02:47:53;7.32;;;4.95;;
55288;SDS011;41154;45.394;5.734;2023-02-28T02:50:26;9.20;;;4.90;;
55288;SDS011;41154;45.394;5.734;2023-02-28T02:53:00;11.57;;;5.07;;
55288;SDS011;41154;45.394;5.734;2023-02-28T02:55:29;8.05;;;4.50;;
55288;SDS011;41154;45.394;5.734;2023-02-28T02:58:04;9.57;;;4.55;;
55288;SDS011;41154;45.394;5.734;2023-02-28T03:00:35;6.55;;;3.25;;
55288;SDS011;41154;45.394;5.734;2023-02-28T03:03:09;6.72;;;4.07;;
55288;SDS011;41154;45.394;5.734;2023-02-28T03:05:48;5.85;;;4.40;;
55288;SDS011;41154;45.394;5.734;2023-02-28T03:08:15;9.25;;;4.53;;
55288;SDS011;41154;45.394;5.734;2023-02-28T03:10:42;10.05;;;5.30;;
55288;SDS011;41154;45.394;5.734;2023-02-28T03:16:05;8.95;;;5.05;;
55288;SDS011;41154;45.394;5.734;2023-02-28T03:27:37;4.30;;;3.40;;
55288;SDS011;41154;45.394;5.734;2023-02-28T03:30:10;8.38;;;4.57;;
55288;SDS011;41154;45.394;5.734;2023-02-28T03:32:56;7.57;;;4.23;;
55288;SDS011;41154;45.394;5.734;2023-02-28T03:35:34;7.18;;;4.57;;
55288;SDS011;41154;45.394;5.734;2023-02-28T03:38:13;10.27;;;4.57;;
55288;SDS011;41154;45.394;5.734;2023-02-28T03:40:45;7.38;;;4.28;;
55288;SDS011;41154;45.394;5.734;2023-02-28T03:43:17;5.97;;;3.97;;
55288;SDS011;41154;45.394;5.734;2023-02-28T03:45:48;4.70;;;3.30;;
55288;SDS011;41154;45.394;5.734;2023-02-28T03:48:21;6.15;;;3.55;;
55288;SDS011;41154;45.394;5.734;2023-02-28T03:50:53;10.02;;;4.07;;
55288;SDS011;41154;45.394;5.734;2023-02-28T03:53:25;5.45;;;3.60;;
55288;SDS011;41154;45.394;5.734;2023-02-28T03:56:13;5.00;;;3.55;;
55288;SDS011;41154;45.394;5.734;2023-02-28T03:58:54;6.85;;;3.72;;
55288;SDS011;41154;45.394;5.734;2023-02-28T04:06:21;4.57;;;2.85;;
55288;SDS011;41154;45.394;5.734;2023-02-28T04:08:48;6.35;;;3.63;;
55288;SDS011;41154;45.394;5.734;2023-02-28T04:13:42;6.85;;;2.92;;
55288;SDS011;41154;45.394;5.734;2023-02-28T04:16:08;8.05;;;3.47;;
55288;SDS011;41154;45.394;5.734;2023-02-28T04:18:37;5.70;;;4.10;;
55288;SDS011;41154;45.394;5.734;2023-02-28T04:21:04;5.70;;;3.15;;
55288;SDS011;41154;45.394;5.734;2023-02-28T04:23:31;6.35;;;3.65;;
55288;SDS011;41154;45.394;5.734;2023-02-28T04:25:57;5.90;;;2.95;;
55288;SDS011;41154;45.394;5.734;2023-02-28T04:28:23;5.65;;;3.40;;
55288;SDS011;41154;45.394;5.734;2023-02-28T04:30:59;5.30;;;3.60;;
55288;SDS011;41154;45.394;5.734;2023-02-28T04:33:27;8.63;;;4.22;;
55288;SDS011;41154;45.394;5.734;2023-02-28T04:36:03;3.47;;;2.17;;
55288;SDS011;41154;45.394;5.734;2023-02-28T04:38:34;5.13;;;3.28;;
55288;SDS011;41154;45.394;5.734;2023-02-28T04:41:01;7.63;;;4.07;;
55288;SDS011;41154;45.394;5.734;2023-02-28T04:43:28;4.35;;;3.53;;
55288;SDS011;41154;45.394;5.734;2023-02-28T04:45:54;5.65;;;3.15;;
55288;SDS011;41154;45.394;5.734;2023-02-28T04:48:25;7.95;;;3.00;;
55288;SDS011;41154;45.394;5.734;2023-02-28T04:50:53;5.07;;;3.22;;
55288;SDS011;41154;45.394;5.734;2023-02-28T04:53:19;6.53;;;4.05;;
55288;SDS011;41154;45.394;5.734;2023-02-28T04:55:45;9.75;;;3.78;;
55288;SDS011;41154;45.394;5.734;2023-02-28T04:58:11;4.45;;;3.10;;
55288;SDS011;41154;45.394;5.734;2023-02-28T05:00:38;3.90;;;2.35;;
55288;SDS011;41154;45.394;5.734;2023-02-28T05:03:06;3.63;;;3.30;;
55288;SDS011;41154;45.394;5.734;2023-02-28T05:05:32;3.42;;;2.92;;
55288;SDS011;41154;45.394;5.734;2023-02-28T05:07:57;5.30;;;3.72;;
55288;SDS011;41154;45.394;5.734;2023-02-28T05:10:23;5.53;;;2.78;;
55288;SDS011;41154;45.394;5.734;2023-02-28T05:12:49;4.53;;;3.55;;
55288;SDS011;41154;45.394;5.734;2023-02-28T05:15:15;5.43;;;3.17;;
55288;SDS011;41154;45.394;5.734;2023-02-28T05:17:42;6.47;;;3.65;;
55288;SDS011;41154;45.394;5.734;2023-02-28T05:20:08;6.40;;;2.92;;
55288;SDS011;41154;45.394;5.734;2023-02-28T05:22:39;4.75;;;2.90;;
55288;SDS011;41154;45.394;5.734;2023-02-28T05:25:05;10.65;;;4.68;;
55288;SDS011;41154;45.394;5.734;2023-02-28T05:27:32;7.13;;;4.05;;
55288;SDS011;41154;45.394;5.734;2023-02-28T05:29:58;9.05;;;4.40;;
55288;SDS011;41154;45.394;5.734;2023-02-28T05:32:24;6.28;;;3.30;;
55288;SDS011;41154;45.394;5.734;2023-02-28T05:34:51;7.13;;;3.58;;
55288;SDS011;41154;45.394;5.734;2023-02-28T05:37:19;5.80;;;3.88;;
55288;SDS011;41154;45.394;5.734;2023-02-28T05:39:47;3.65;;;2.78;;
55288;SDS011;41154;45.394;5.734;2023-02-28T05:42:13;5.57;;;3.00;;
55288;SDS011;41154;45.394;5.734;2023-02-28T05:44:42;4.35;;;2.63;;
55288;SDS011;41154;45.394;5.734;2023-02-28T05:47:07;3.90;;;2.58;;
55288;SDS011;41154;45.394;5.734;2023-02-28T05:49:33;6.63;;;2.83;;
55288;SDS011;41154;45.394;5.734;2023-02-28T05:51:59;5.88;;;2.75;;
55288;SDS011;41154;45.394;5.734;2023-02-28T05:54:25;3.53;;;2.50;;
55288;SDS011;41154;45.394;5.734;2023-02-28T05:56:51;5.60;;;2.53;;
55288;SDS011;41154;45.394;5.734;2023-02-28T05:59:16;3.60;;;2.55;;
55288;SDS011;41154;45.394;5.734;2023-02-28T06:01:43;4.53;;;2.38;;
55288;SDS011;41154;45.394;5.734;2023-02-28T06:04:14;4.80;;;3.20;;
55288;SDS011;41154;45.394;5.734;2023-02-28T06:06:43;7.45;;;3.28;;
55288;SDS011;41154;45.394;5.734;2023-02-28T06:09:10;8.10;;;3.42;;
55288;SDS011;41154;45.394;5.734;2023-02-28T06:11:37;5.43;;;3.50;;
55288;SDS011;41154;45.394;5.734;2023-02-28T06:14:03;6.60;;;3.22;;
55288;SDS011;41154;45.394;5.734;2023-02-28T06:16:30;5.53;;;3.88;;
55288;SDS011;41154;45.394;5.734;2023-02-28T06:18:57;4.85;;;2.80;;
55288;SDS011;41154;45.394;5.734;2023-02-28T06:21:24;6.50;;;3.95;;
55288;SDS011;41154;45.394;5.734;2023-02-28T06:23:51;4.40;;;2.92;;
55288;SDS011;41154;45.394;5.734;2023-02-28T06:26:17;5.10;;;3.17;;
55288;SDS011;41154;45.394;5.734;2023-02-28T06:28:42;9.18;;;3.50;;
55288;SDS011;41154;45.394;5.734;2023-02-28T06:31:09;4.13;;;3.13;;
55288;SDS011;41154;45.394;5.734;2023-02-28T06:33:37;3.63;;;2.33;;
55288;SDS011;41154;45.394;5.734;2023-02-28T06:36:03;3.33;;;2.50;;
55288;SDS011;41154;45.394;5.734;2023-02-28T06:38:30;7.93;;;4.10;;
55288;SDS011;41154;45.394;5.734;2023-02-28T06:41:00;5.72;;;2.67;;
55288;SDS011;41154;45.394;5.734;2023-02-28T06:43:29;2.15;;;1.73;;
55288;SDS011;41154;45.394;5.734;2023-02-28T06:48:26;3.67;;;2.17;;
55288;SDS011;41154;45.394;5.734;2023-02-28T06:51:04;7.05;;;3.80;;
55288;SDS011;41154;45.394;5.734;2023-02-28T06:53:42;3.92;;;1.92;;
55288;SDS011;41154;45.394;5.734;2023-02-28T06:56:09;5.93;;;3.15;;
55288;SDS011;41154;45.394;5.734;2023-02-28T06:58:37;4.85;;;2.85;;
55288;SDS011;41154;45.394;5.734;2023-02-28T07:01:07;10.05;;;3.50;;
55288;SDS011;41154;45.394;5.734;2023-02-28T07:03:34;4.00;;;2.65;;
55288;SDS011;41154;45.394;5.734;2023-02-28T07:06:01;6.85;;;3.30;;
55288;SDS011;41154;45.394;5.734;2023-02-28T07:08:27;4.95;;;3.72;;
55288;SDS011;41154;45.394;5.734;2023-02-28T07:10:56;5.90;;;3.25;;
55288;SDS011;41154;45.394;5.734;2023-02-28T07:13:24;3.13;;;2.40;;
55288;SDS011;41154;45.394;5.734;2023-02-28T07:16:00;6.70;;;3.55;;
55288;SDS011;41154;45.394;5.734;2023-02-28T07:18:28;4.97;;;3.38;;
55288;SDS011;41154;45.394;5.734;2023-02-28T07:20:55;5.43;;;3.20;;
55288;SDS011;41154;45.394;5.734;2023-02-28T07:23:21;4.10;;;3.08;;
55288;SDS011;41154;45.394;5.734;2023-02-28T07:25:49;4.88;;;3.25;;
55288;SDS011;41154;45.394;5.734;2023-02-28T07:28:15;5.35;;;2.80;;
55288;SDS011;41154;45.394;5.734;2023-02-28T07:30:41;3.70;;;2.33;;
55288;SDS011;41154;45.394;5.734;2023-02-28T07:33:07;7.25;;;3.55;;
55288;SDS011;41154;45.394;5.734;2023-02-28T07:35:34;4.95;;;3.08;;
55288;SDS011;41154;45.394;5.734;2023-02-28T07:38:00;5.13;;;2.92;;
55288;SDS011;41154;45.394;5.734;2023-02-28T07:40:26;5.43;;;3.38;;
55288;SDS011;41154;45.394;5.734;2023-02-28T07:42:52;5.68;;;3.45;;
55288;SDS011;41154;45.394;5.734;2023-02-28T07:45:18;6.63;;;3.80;;
55288;SDS011;41154;45.394;5.734;2023-02-28T07:47:44;10.93;;;3.90;;
55288;SDS011;41154;45.394;5.734;2023-02-28T07:50:12;5.90;;;3.35;;
55288;SDS011;41154;45.394;5.734;2023-02-28T07:52:39;7.35;;;3.78;;
55288;SDS011;41154;45.394;5.734;2023-02-28T07:55:06;4.65;;;2.88;;
55288;SDS011;41154;45.394;5.734;2023-02-28T07:57:33;5.90;;;3.38;;
55288;SDS011;41154;45.394;5.734;2023-02-28T07:59:59;11.13;;;3.83;;
55288;SDS011;41154;45.394;5.734;2023-02-28T08:02:25;8.48;;;4.50;;
55288;SDS011;41154;45.394;5.734;2023-02-28T08:04:51;7.72;;;3.78;;
55288;SDS011;41154;45.394;5.734;2023-02-28T08:07:17;7.28;;;3.50;;
55288;SDS011;41154;45.394;5.734;2023-02-28T08:09:44;5.15;;;3.10;;
55288;SDS011;41154;45.394;5.734;2023-02-28T08:12:10;5.18;;;3.70;;
55288;SDS011;41154;45.394;5.734;2023-02-28T08:14:37;8.65;;;3.97;;
55288;SDS011;41154;45.394;5.734;2023-02-28T08:17:03;5.88;;;3.47;;
55288;SDS011;41154;45.394;5.734;2023-02-28T08:19:29;6.30;;;3.50;;
55288;SDS011;41154;45.394;5.734;2023-02-28T08:21:56;2.92;;;2.17;;
55288;SDS011;41154;45.394;5.734;2023-02-28T08:24:21;4.72;;;3.38;;
55288;SDS011;41154;45.394;5.734;2023-02-28T08:26:48;8.73;;;3.55;;
55288;SDS011;41154;45.394;5.734;2023-02-28T08:29:15;4.45;;;3.42;;
55288;SDS011;41154;45.394;5.734;2023-02-28T08:31:41;7.38;;;3.88;;
55288;SDS011;41154;45.394;5.734;2023-02-28T08:34:11;6.97;;;4.22;;
55288;SDS011;41154;45.394;5.734;2023-02-28T08:36:39;6.55;;;4.07;;
55288;SDS011;41154;45.394;5.734;2023-02-28T08:39:05;6.57;;;3.95;;
55288;SDS011;41154;45.394;5.734;2023-02-28T08:41:33;6.43;;;3.83;;
55288;SDS011;41154;45.394;5.734;2023-02-28T08:43:59;8.15;;;3.80;;
55288;SDS011;41154;45.394;5.734;2023-02-28T08:46:25;9.27;;;5.55;;
55288;SDS011;41154;45.394;5.734;2023-02-28T08:48:55;5.90;;;3.85;;
55288;SDS011;41154;45.394;5.734;2023-02-28T08:51:25;7.55;;;4.55;;
55288;SDS011;41154;45.394;5.734;2023-02-28T08:53:54;6.20;;;3.78;;
55288;SDS011;41154;45.394;5.734;2023-02-28T08:56:27;6.75;;;3.90;;
55288;SDS011;41154;45.394;5.734;2023-02-28T08:59:04;15.75;;;4.90;;
55288;SDS011;41154;45.394;5.734;2023-02-28T09:01:30;8.45;;;4.22;;
55288;SDS011;41154;45.394;5.734;2023-02-28T09:03:57;6.30;;;4.32;;
55288;SDS011;41154;45.394;5.734;2023-02-28T09:06:24;8.35;;;5.15;;
55288;SDS011;41154;45.394;5.734;2023-02-28T09:08:52;12.18;;;4.95;;
55288;SDS011;41154;45.394;5.734;2023-02-28T09:11:29;12.48;;;4.65;;
55288;SDS011;41154;45.394;5.734;2023-02-28T09:13:54;6.15;;;3.90;;
55288;SDS011;41154;45.394;5.734;2023-02-28T09:16:22;8.25;;;4.75;;
55288;SDS011;41154;45.394;5.734;2023-02-28T09:18:48;7.72;;;4.43;;
55288;SDS011;41154;45.394;5.734;2023-02-28T09:21:15;11.50;;;5.45;;
55288;SDS011;41154;45.394;5.734;2023-02-28T09:23:44;8.65;;;4.90;;
55288;SDS011;41154;45.394;5.734;2023-02-28T09:26:15;7.95;;;4.47;;
55288;SDS011;41154;45.394;5.734;2023-02-28T09:28:47;9.18;;;4.40;;
55288;SDS011;41154;45.394;5.734;2023-02-28T09:31:15;5.30;;;3.70;;
55288;SDS011;41154;45.394;5.734;2023-02-28T09:33:48;5.70;;;4.10;;
55288;SDS011;41154;45.394;5.734;2023-02-28T09:36:15;6.78;;;4.47;;
55288;SDS011;41154;45.394;5.734;2023-02-28T09:38:41;7.07;;;3.95;;
55288;SDS011;41154;45.394;5.734;2023-02-28T09:41:31;5.95;;;2.95;;
55288;SDS011;41154;45.394;5.734;2023-02-28T09:44:02;5.10;;;3.75;;
55288;SDS011;41154;45.394;5.734;2023-02-28T09:46:43;6.95;;;4.18;;
55288;SDS011;41154;45.394;5.734;2023-02-28T09:49:13;5.53;;;3.25;;
55288;SDS011;41154;45.394;5.734;2023-02-28T09:54:13;7.40;;;4.15;;
55288;SDS011;41154;45.394;5.734;2023-02-28T09:56:44;7.10;;;4.05;;
55288;SDS011;41154;45.394;5.734;2023-02-28T10:04:59;7.82;;;4.40;;
55288;SDS011;41154;45.394;5.734;2023-02-28T10:13:17;6.85;;;4.32;;
55288;SDS011;41154;45.394;5.734;2023-02-28T10:15:51;8.05;;;4.63;;
55288;SDS011;41154;45.394;5.734;2023-02-28T10:18:25;8.70;;;4.57;;
55288;SDS011;41154;45.394;5.734;2023-02-28T10:24:32;5.47;;;3.95;;
55288;SDS011;41154;45.394;5.734;2023-02-28T10:29:24;4.43;;;2.97;;
55288;SDS011;41154;45.394;5.734;2023-02-28T10:31:51;9.32;;;3.20;;
55288;SDS011;41154;45.394;5.734;2023-02-28T10:34:17;10.07;;;4.95;;
55288;SDS011;41154;45.394;5.734;2023-02-28T10:36:43;5.82;;;3.50;;
55288;SDS011;41154;45.394;5.734;2023-02-28T10:42:02;9.48;;;5.07;;
55288;SDS011;41154;45.394;5.734;2023-02-28T10:44:29;5.45;;;3.60;;
55288;SDS011;41154;45.394;5.734;2023-02-28T10:46:54;5.72;;;3.58;;
55288;SDS011;41154;45.394;5.734;2023-02-28T10:49:25;6.47;;;3.78;;
55288;SDS011;41154;45.394;5.734;2023-02-28T10:51:56;6.22;;;3.38;;
55288;SDS011;41154;45.394;5.734;2023-02-28T10:54:33;9.73;;;5.45;;
55288;SDS011;41154;45.394;5.734;2023-02-28T10:57:07;7.10;;;4.55;;
55288;SDS011;41154;45.394;5.734;2023-02-28T10:59:45;7.90;;;4.72;;
55288;SDS011;41154;45.394;5.734;2023-02-28T11:02:32;7.68;;;4.20;;
55288;SDS011;41154;45.394;5.734;2023-02-28T11:05:02;9.18;;;4.43;;
55288;SDS011;41154;45.394;5.734;2023-02-28T11:07:28;8.10;;;4.20;;
55288;SDS011;41154;45.394;5.734;2023-02-28T11:09:54;8.63;;;5.30;;
55288;SDS011;41154;45.394;5.734;2023-02-28T11:15:18;8.35;;;4.72;;
55288;SDS011;41154;45.394;5.734;2023-02-28T11:18:04;7.43;;;4.55;;
55288;SDS011;41154;45.394;5.734;2023-02-28T11:20:49;9.55;;;4.63;;
55288;SDS011;41154;45.394;5.734;2023-02-28T11:23:18;10.73;;;4.88;;
55288;SDS011;41154;45.394;5.734;2023-02-28T11:25:49;8.85;;;5.35;;
55288;SDS011;41154;45.394;5.734;2023-02-28T11:31:00;7.70;;;4.60;;
55288;SDS011;41154;45.394;5.734;2023-02-28T11:33:32;8.30;;;5.35;;
55288;SDS011;41154;45.394;5.734;2023-02-28T11:36:08;7.70;;;4.72;;
55288;SDS011;41154;45.394;5.734;2023-02-28T11:38:36;9.52;;;5.05;;
55288;SDS011;41154;45.394;5.734;2023-02-28T11:49:34;5.47;;;4.55;;
55288;SDS011;41154;45.394;5.734;2023-02-28T11:55:39;9.93;;;5.60;;
55288;SDS011;41154;45.394;5.734;2023-02-28T11:58:21;7.25;;;4.63;;
55288;SDS011;41154;45.394;5.734;2023-02-28T12:06:21;12.00;;;5.35;;
55288;SDS011;41154;45.394;5.734;2023-02-28T12:11:52;8.32;;;4.70;;
55288;SDS011;41154;45.394;5.734;2023-02-28T12:17:22;13.48;;;6.53;;
55288;SDS011;41154;45.394;5.734;2023-02-28T12:20:40;9.70;;;5.65;;
55288;SDS011;41154;45.394;5.734;2023-02-28T12:23:18;7.07;;;4.40;;
55288;SDS011;41154;45.394;5.734;2023-02-28T12:28:43;12.67;;;5.80;;
55288;SDS011;41154;45.394;5.734;2023-02-28T12:33:49;10.27;;;5.40;;
55288;SDS011;41154;45.394;5.734;2023-02-28T12:36:19;7.82;;;4.57;;
55288;SDS011;41154;45.394;5.734;2023-02-28T12:38:48;9.90;;;5.32;;
55288;SDS011;41154;45.394;5.734;2023-02-28T12:44:35;7.15;;;4.78;;
55288;SDS011;41154;45.394;5.734;2023-02-28T12:47:11;8.50;;;4.72;;
55288;SDS011;41154;45.394;5.734;2023-02-28T12:49:51;8.85;;;5.32;;
55288;SDS011;41154;45.394;5.734;2023-02-28T12:58:23;7.60;;;4.43;;
55288;SDS011;41154;45.394;5.734;2023-02-28T13:04:03;6.63;;;4.18;;
55288;SDS011;41154;45.394;5.734;2023-02-28T13:09:16;8.25;;;5.15;;
55288;SDS011;41154;45.394;5.734;2023-02-28T13:11:44;15.65;;;5.93;;
55288;SDS011;41154;45.394;5.734;2023-02-28T13:19:26;6.38;;;3.78;;
55288;SDS011;41154;45.394;5.734;2023-02-28T13:21:54;9.57;;;5.70;;
55288;SDS011;41154;45.394;5.734;2023-02-28T13:24:41;9.38;;;4.55;;
55288;SDS011;41154;45.394;5.734;2023-02-28T13:27:12;8.52;;;4.85;;
55288;SDS011;41154;45.394;5.734;2023-02-28T13:29:50;11.02;;;5.43;;
55288;SDS011;41154;45.394;5.734;2023-02-28T13:32:33;11.32;;;6.30;;
55288;SDS011;41154;45.394;5.734;2023-02-28T13:37:32;14.57;;;6.10;;
55288;SDS011;41154;45.394;5.734;2023-02-28T13:40:34;8.35;;;4.97;;
55288;SDS011;41154;45.394;5.734;2023-02-28T13:43:02;9.63;;;5.15;;
55288;SDS011;41154;45.394;5.734;2023-02-28T13:45:28;9.75;;;5.28;;
55288;SDS011;41154;45.394;5.734;2023-02-28T13:48:17;10.82;;;5.20;;
55288;SDS011;41154;45.394;5.734;2023-02-28T13:50:45;10.18;;;5.55;;
55288;SDS011;41154;45.394;5.734;2023-02-28T14:08:55;9.85;;;4.88;;
55288;SDS011;41154;45.394;5.734;2023-02-28T14:11:29;5.85;;;4.00;;
55288;SDS011;41154;45.394;5.734;2023-02-28T14:13:57;8.68;;;5.22;;
55288;SDS011;41154;45.394;5.734;2023-02-28T14:19:11;10.82;;;6.13;;
55288;SDS011;41154;45.394;5.734;2023-02-28T14:21:52;7.90;;;4.45;;
55288;SDS011;41154;45.394;5.734;2023-02-28T14:37:46;8.32;;;4.72;;
55288;SDS011;41154;45.394;5.734;2023-02-28T14:40:32;9.93;;;6.30;;
55288;SDS011;41154;45.394;5.734;2023-02-28T14:43:01;10.02;;;5.22;;
55288;SDS011;41154;45.394;5.734;2023-02-28T14:45:32;10.57;;;4.82;;
55288;SDS011;41154;45.394;5.734;2023-02-28T14:48:01;10.30;;;6.32;;
55288;SDS011;41154;45.394;5.734;2023-02-28T14:50:30;10.25;;;5.57;;
55288;SDS011;41154;45.394;5.734;2023-02-28T14:53:00;12.93;;;5.85;;
55288;SDS011;41154;45.394;5.734;2023-02-28T14:55:31;14.07;;;6.28;;
55288;SDS011;41154;45.394;5.734;2023-02-28T14:58:01;18.70;;;4.90;;
55288;SDS011;41154;45.394;5.734;2023-02-28T15:00:33;9.68;;;5.45;;
55288;SDS011;41154;45.394;5.734;2023-02-28T15:05:57;9.85;;;5.18;;
55288;SDS011;41154;45.394;5.734;2023-02-28T15:08:28;7.25;;;4.85;;
55288;SDS011;41154;45.394;5.734;2023-02-28T15:10:57;11.13;;;6.10;;
55288;SDS011;41154;45.394;5.734;2023-02-28T15:16:11;11.77;;;6.38;;
55288;SDS011;41154;45.394;5.734;2023-02-28T15:21:11;15.00;;;6.80;;
55288;SDS011;41154;45.394;5.734;2023-02-28T15:23:42;12.07;;;6.93;;
55288;SDS011;41154;45.394;5.734;2023-02-28T15:26:14;11.48;;;5.88;;
55288;SDS011;41154;45.394;5.734;2023-02-28T15:28:47;13.43;;;6.40;;
55288;SDS011;41154;45.394;5.734;2023-02-28T15:31:50;11.25;;;6.03;;
55288;SDS011;41154;45.394;5.734;2023-02-28T15:40:27;9.55;;;5.38;;
55288;SDS011;41154;45.394;5.734;2023-02-28T15:45:37;9.52;;;5.00;;
55288;SDS011;41154;45.394;5.734;2023-02-28T15:48:14;10.63;;;5.65;;
55288;SDS011;41154;45.394;5.734;2023-02-28T15:50:55;9.35;;;4.68;;
55288;SDS011;41154;45.394;5.734;2023-02-28T15:59:02;7.30;;;4.65;;
55288;SDS011;41154;45.394;5.734;2023-02-28T16:01:35;11.48;;;5.45;;
55288;SDS011;41154;45.394;5.734;2023-02-28T16:04:04;10.02;;;4.93;;
55288;SDS011;41154;45.394;5.734;2023-02-28T16:06:53;9.57;;;5.63;;
55288;SDS011;41154;45.394;5.734;2023-02-28T16:09:27;8.43;;;4.80;;
55288;SDS011;41154;45.394;5.734;2023-02-28T16:11:56;13.63;;;8.25;;
55288;SDS011;41154;45.394;5.734;2023-02-28T16:14:28;13.20;;;6.32;;
55288;SDS011;41154;45.394;5.734;2023-02-28T16:17:07;11.32;;;6.47;;
55288;SDS011;41154;45.394;5.734;2023-02-28T16:19:45;8.95;;;5.28;;
55288;SDS011;41154;45.394;5.734;2023-02-28T16:22:12;14.68;;;5.53;;
55288;SDS011;41154;45.394;5.734;2023-02-28T16:24:38;9.80;;;4.78;;
55288;SDS011;41154;45.394;5.734;2023-02-28T16:27:05;9.07;;;4.97;;
55288;SDS011;41154;45.394;5.734;2023-02-28T16:29:32;8.07;;;5.03;;
55288;SDS011;41154;45.394;5.734;2023-02-28T16:32:03;9.68;;;5.57;;
55288;SDS011;41154;45.394;5.734;2023-02-28T16:34:31;11.88;;;5.78;;
55288;SDS011;41154;45.394;5.734;2023-02-28T16:36:57;14.57;;;6.38;;
55288;SDS011;41154;45.394;5.734;2023-02-28T16:39:23;11.63;;;6.05;;
55288;SDS011;41154;45.394;5.734;2023-02-28T16:41:49;12.02;;;5.50;;
55288;SDS011;41154;45.394;5.734;2023-02-28T16:44:30;8.60;;;5.50;;
55288;SDS011;41154;45.394;5.734;2023-02-28T16:47:02;8.95;;;4.95;;
55288;SDS011;41154;45.394;5.734;2023-02-28T16:49:29;10.02;;;5.85;;
55288;SDS011;41154;45.394;5.734;2023-02-28T16:51:55;10.57;;;5.72;;
55288;SDS011;41154;45.394;5.734;2023-02-28T16:54:21;9.50;;;4.72;;
55288;SDS011;41154;45.394;5.734;2023-02-28T16:56:48;9.57;;;5.07;;
55288;SDS011;41154;45.394;5.734;2023-02-28T16:59:15;10.95;;;4.57;;
55288;SDS011;41154;45.394;5.734;2023-02-28T17:01:44;8.43;;;5.47;;
55288;SDS011;41154;45.394;5.734;2023-02-28T17:04:10;9.05;;;5.55;;
55288;SDS011;41154;45.394;5.734;2023-02-28T17:06:36;9.45;;;5.55;;
55288;SDS011;41154;45.394;5.734;2023-02-28T17:09:03;11.13;;;6.18;;
55288;SDS011;41154;45.394;5.734;2023-02-28T17:13:59;12.60;;;5.53;;
55288;SDS011;41154;45.394;5.734;2023-02-28T17:18:59;9.88;;;5.32;;
55288;SDS011;41154;45.394;5.734;2023-02-28T17:21:27;9.25;;;4.97;;
55288;SDS011;41154;45.394;5.734;2023-02-28T17:23:53;9.15;;;5.43;;
55288;SDS011;41154;45.394;5.734;2023-02-28T17:26:19;9.93;;;4.55;;
55288;SDS011;41154;45.394;5.734;2023-02-28T17:28:50;12.98;;;6.85;;
55288;SDS011;41154;45.394;5.734;2023-02-28T17:31:23;10.30;;;5.88;;
55288;SDS011;41154;45.394;5.734;2023-02-28T17:33:50;10.52;;;6.45;;
55288;SDS011;41154;45.394;5.734;2023-02-28T17:36:18;10.85;;;6.00;;
55288;SDS011;41154;45.394;5.734;2023-02-28T17:38:49;9.50;;;5.63;;
55288;SDS011;41154;45.394;5.734;2023-02-28T17:41:15;13.80;;;6.25;;
55288;SDS011;41154;45.394;5.734;2023-02-28T17:43:41;23.27;;;8.77;;
55288;SDS011;41154;45.394;5.734;2023-02-28T17:46:25;47.03;;;14.40;;
55288;SDS011;41154;45.394;5.734;2023-02-28T17:48:51;23.00;;;9.57;;
55288;SDS011;41154;45.394;5.734;2023-02-28T17:51:18;14.82;;;7.80;;
55288;SDS011;41154;45.394;5.734;2023-02-28T17:53:46;9.10;;;5.50;;
55288;SDS011;41154;45.394;5.734;2023-02-28T17:56:14;13.88;;;7.50;;
55288;SDS011;41154;45.394;5.734;2023-02-28T17:58:51;13.50;;;6.90;;
55288;SDS011;41154;45.394;5.734;2023-02-28T18:01:18;11.85;;;6.63;;
55288;SDS011;41154;45.394;5.734;2023-02-28T18:03:45;10.77;;;6.45;;
55288;SDS011;41154;45.394;5.734;2023-02-28T18:08:46;10.38;;;5.30;;
55288;SDS011;41154;45.394;5.734;2023-02-28T18:11:12;11.20;;;6.43;;
55288;SDS011;41154;45.394;5.734;2023-02-28T18:13:44;10.52;;;5.75;;